createdAt,value
2017-07-20T00:01:13.711Z,19.59
2017-07-20T00:03:41.163Z,19.85
2017-07-20T00:06:08.657Z,19.68
2017-07-20T00:08:36.115Z,19.57
2017-07-20T00:11:03.607Z,19.52
2017-07-20T00:13:31.069Z,19.52
2017-07-20T00:15:58.560Z,19.55
2017-07-20T00:18:26.023Z,19.49
2017-07-20T00:20:53.482Z,19.55
2017-07-20T00:23:20.978Z,19.49
2017-07-20T00:25:48.451Z,19.49
2017-07-20T00:28:15.935Z,19.50
2017-07-20T00:30:43.437Z,19.51
2017-07-20T00:33:10.924Z,19.54
2017-07-20T00:35:38.384Z,19.43
2017-07-20T00:38:05.875Z,19.62
2017-07-20T00:40:33.367Z,19.61
2017-07-20T00:43:00.824Z,19.67
2017-07-20T00:45:28.324Z,19.50
2017-07-20T00:47:55.784Z,19.51
2017-07-20T00:50:23.265Z,19.50
2017-07-20T00:52:50.771Z,19.45
2017-07-20T00:55:18.223Z,19.50
2017-07-20T00:57:45.684Z,19.38
2017-07-20T01:00:13.166Z,19.34
2017-07-20T01:02:40.659Z,19.29
2017-07-20T01:05:08.131Z,19.38
2017-07-20T01:07:35.636Z,19.23
2017-07-20T01:10:03.095Z,19.29
2017-07-20T01:12:30.550Z,19.28
2017-07-20T01:14:58.023Z,19.24
2017-07-20T01:17:25.502Z,19.42
2017-07-20T01:19:52.969Z,19.42
2017-07-20T01:22:20.692Z,19.67
2017-07-20T01:24:48.151Z,19.65
2017-07-20T01:27:15.611Z,19.68
2017-07-20T01:29:43.110Z,19.72
2017-07-20T01:32:10.600Z,19.80
2017-07-20T01:34:38.055Z,19.70
2017-07-20T01:37:05.558Z,19.91
2017-07-20T01:39:33.060Z,20.02
2017-07-20T01:42:00.522Z,20.03
2017-07-20T01:44:27.999Z,19.96
2017-07-20T01:46:55.459Z,20.04
2017-07-20T01:49:22.956Z,20.02
2017-07-20T01:51:51.533Z,19.81
2017-07-20T01:54:19.039Z,19.83
2017-07-20T01:56:46.535Z,19.86
2017-07-20T01:59:13.999Z,20.02
2017-07-20T02:01:41.458Z,19.86
2017-07-20T02:04:08.946Z,19.75
2017-07-20T02:06:36.415Z,19.94
2017-07-20T02:09:03.890Z,19.99
2017-07-20T02:11:31.390Z,20.07
2017-07-20T02:13:58.887Z,19.93
2017-07-20T02:16:26.388Z,20.02
2017-07-20T02:18:53.847Z,19.95
2017-07-20T02:21:21.307Z,19.95
2017-07-20T02:23:48.780Z,20.15
2017-07-20T02:26:16.264Z,20.03
2017-07-20T02:28:43.722Z,19.79
2017-07-20T02:31:11.196Z,19.71
2017-07-20T02:33:38.647Z,19.62
2017-07-20T02:36:06.144Z,19.53
2017-07-20T02:38:33.608Z,19.43
2017-07-20T02:41:01.118Z,19.33
2017-07-20T02:43:28.575Z,19.23
2017-07-20T02:45:56.048Z,19.18
2017-07-20T02:48:23.534Z,19.06
2017-07-20T02:50:50.997Z,18.96
2017-07-20T02:53:18.475Z,18.99
2017-07-20T02:55:45.956Z,18.83
2017-07-20T02:58:13.427Z,18.86
2017-07-20T03:00:40.914Z,18.84
2017-07-20T03:03:08.371Z,18.76
2017-07-20T03:05:35.862Z,18.76
2017-07-20T03:08:03.315Z,18.70
2017-07-20T03:10:30.773Z,19.84
2017-07-20T03:12:58.255Z,19.27
2017-07-20T03:15:25.712Z,19.87
2017-07-20T03:17:53.505Z,19.39
2017-07-20T03:20:20.974Z,19.08
2017-07-20T03:22:48.436Z,19.04
2017-07-20T03:25:15.922Z,19.18
2017-07-20T03:27:43.404Z,18.91
2017-07-20T03:30:10.905Z,19.01
2017-07-20T03:32:38.375Z,19.67
2017-07-20T03:35:05.859Z,19.58
2017-07-20T03:37:33.345Z,19.86
2017-07-20T03:40:00.829Z,20.93
2017-07-20T03:42:28.326Z,19.42
2017-07-20T03:44:55.782Z,19.02
2017-07-20T03:47:23.247Z,19.35
2017-07-20T03:49:50.889Z,19.03
2017-07-20T03:52:18.338Z,18.83
2017-07-20T03:54:45.784Z,19.11
2017-07-20T03:57:13.271Z,18.85
2017-07-20T03:59:40.738Z,19.13
2017-07-20T04:02:08.189Z,18.60
2017-07-20T04:04:35.796Z,18.62
2017-07-20T04:07:03.239Z,18.62
2017-07-20T04:09:30.687Z,19.19
2017-07-20T04:11:58.157Z,18.92
2017-07-20T04:14:25.628Z,18.68
2017-07-20T04:16:53.111Z,18.66
2017-07-20T04:19:20.573Z,18.89
2017-07-20T04:21:48.029Z,19.25
2017-07-20T04:24:15.509Z,19.15
2017-07-20T04:26:42.981Z,19.02
2017-07-20T04:29:10.432Z,19.41
2017-07-20T04:31:37.912Z,19.59
2017-07-20T04:34:05.357Z,19.93
2017-07-20T04:36:32.844Z,20.06
2017-07-20T04:39:00.293Z,20.29
2017-07-20T04:41:27.749Z,20.29
2017-07-20T04:43:55.228Z,20.18
2017-07-20T04:46:22.930Z,20.35
2017-07-20T04:48:50.381Z,20.60
2017-07-20T04:51:17.825Z,20.74
2017-07-20T04:53:45.297Z,20.66
2017-07-20T04:56:12.777Z,20.96
2017-07-20T04:58:40.301Z,21.01
2017-07-20T05:01:07.745Z,21.09
2017-07-20T05:03:35.193Z,21.20
2017-07-20T05:06:02.920Z,21.51
2017-07-20T05:08:30.382Z,21.53
2017-07-20T05:10:57.838Z,21.48
2017-07-20T05:13:25.314Z,21.73
2017-07-20T05:15:52.792Z,22.02
2017-07-20T05:18:20.284Z,22.24
2017-07-20T05:20:47.728Z,22.22
2017-07-20T05:23:15.185Z,22.38
2017-07-20T05:25:42.661Z,22.55
2017-07-20T05:28:10.104Z,22.68
2017-07-20T05:30:37.548Z,22.94
2017-07-20T05:33:05.019Z,23.02
2017-07-20T05:35:32.473Z,22.95
2017-07-20T05:37:59.958Z,23.00
2017-07-20T05:40:27.416Z,23.06
2017-07-20T05:42:54.862Z,22.98
2017-07-20T05:45:22.501Z,23.12
2017-07-20T05:47:49.945Z,23.21
2017-07-20T05:50:17.400Z,23.31
2017-07-20T05:52:44.869Z,23.38
2017-07-20T05:55:12.320Z,23.57
2017-07-20T05:57:39.795Z,22.95
2017-07-20T06:00:07.238Z,22.89
2017-07-20T06:02:34.719Z,23.27
2017-07-20T06:05:02.173Z,23.66
2017-07-20T06:07:29.629Z,23.76
2017-07-20T06:09:57.105Z,24.19
2017-07-20T06:12:24.549Z,24.35
2017-07-20T06:14:52.034Z,24.00
2017-07-20T06:17:19.470Z,23.65
2017-07-20T06:19:46.912Z,23.77
2017-07-20T06:22:14.393Z,23.93
2017-07-20T06:24:41.844Z,24.19
2017-07-20T06:27:09.297Z,24.16
2017-07-20T06:29:37.166Z,23.81
2017-07-20T06:32:04.605Z,23.94
2017-07-20T06:34:32.046Z,24.38
2017-07-20T06:36:59.515Z,24.57
2017-07-20T06:39:26.985Z,24.05
2017-07-20T06:41:54.460Z,24.58
2017-07-20T06:44:21.910Z,24.02
2017-07-20T06:46:49.393Z,24.35
2017-07-20T06:49:16.837Z,24.57
2017-07-20T06:51:44.294Z,24.10
2017-07-20T06:54:11.778Z,24.00
2017-07-20T06:56:39.228Z,24.02
2017-07-20T06:59:06.696Z,23.99
2017-07-20T07:01:34.137Z,23.82
2017-07-20T07:04:01.619Z,23.81
2017-07-20T07:06:29.064Z,24.17
2017-07-20T07:08:56.502Z,23.92
2017-07-20T07:11:23.968Z,24.13
2017-07-20T07:13:51.434Z,24.04
2017-07-20T07:16:18.905Z,23.89
2017-07-20T07:18:46.349Z,23.77
2017-07-20T07:24:08.149Z,24.06
2017-07-20T07:26:35.630Z,24.27
2017-07-20T07:29:03.100Z,24.18
2017-07-20T07:31:30.544Z,24.41
2017-07-20T07:33:58.053Z,24.53
2017-07-20T07:36:25.501Z,24.58
2017-07-20T07:38:52.957Z,24.88
2017-07-20T07:41:20.433Z,24.92
2017-07-20T07:43:47.873Z,25.13
2017-07-20T07:46:15.358Z,25.35
2017-07-20T07:48:42.801Z,25.42
2017-07-20T07:51:10.242Z,25.65
2017-07-20T07:53:37.715Z,25.52
2017-07-20T07:56:05.165Z,25.77
2017-07-20T07:58:32.653Z,25.76
2017-07-20T08:01:00.098Z,25.86
2017-07-20T08:03:27.554Z,25.92
2017-07-20T08:05:55.033Z,26.06
2017-07-20T08:08:22.501Z,25.90
2017-07-20T08:10:49.982Z,26.33
2017-07-20T08:13:17.426Z,26.32
2017-07-20T08:15:44.880Z,26.62
2017-07-20T08:18:12.346Z,26.42
2017-07-20T08:20:39.798Z,26.60
2017-07-20T08:23:07.269Z,26.87
2017-07-20T08:25:34.732Z,26.84
2017-07-20T08:28:02.223Z,26.70
2017-07-20T08:30:29.700Z,26.88
2017-07-20T08:32:57.187Z,26.97
2017-07-20T08:35:24.669Z,26.98
2017-07-20T08:37:52.129Z,27.23
2017-07-20T08:40:19.628Z,27.38
2017-07-20T08:42:47.090Z,27.36
2017-07-20T08:45:14.542Z,27.46
2017-07-20T08:47:42.029Z,27.41
2017-07-20T08:50:09.480Z,27.25
2017-07-20T08:52:36.940Z,27.33
2017-07-20T08:55:04.418Z,27.27
2017-07-20T08:57:31.892Z,27.49
2017-07-20T08:59:59.529Z,27.53
2017-07-20T09:02:26.976Z,27.60
2017-07-20T09:04:54.412Z,27.85
2017-07-20T09:07:21.889Z,28.04
2017-07-20T09:09:49.346Z,28.28
2017-07-20T09:12:16.787Z,28.24
2017-07-20T09:14:44.276Z,28.21
2017-07-20T09:17:11.730Z,27.97
2017-07-20T09:19:39.171Z,28.38
2017-07-20T09:22:06.649Z,28.39
2017-07-20T09:24:34.105Z,28.59
2017-07-20T09:27:01.570Z,28.60
2017-07-20T09:29:29.011Z,28.57
2017-07-20T09:31:56.506Z,29.08
2017-07-20T09:34:23.949Z,29.33
2017-07-20T09:36:51.395Z,29.22
2017-07-20T09:39:18.877Z,29.07
2017-07-20T09:41:46.329Z,28.88
2017-07-20T09:44:13.777Z,29.18
2017-07-20T09:46:41.257Z,29.04
2017-07-20T09:49:08.709Z,29.38
2017-07-20T09:51:36.169Z,29.56
2017-07-20T09:54:03.779Z,29.75
2017-07-20T09:56:31.234Z,29.86
2017-07-20T09:58:58.687Z,29.86
2017-07-20T10:01:26.177Z,29.95
2017-07-20T10:03:53.622Z,30.14
2017-07-20T10:06:21.061Z,29.79
2017-07-20T10:08:48.529Z,30.39
2017-07-20T10:11:15.980Z,30.56
2017-07-20T10:13:43.480Z,30.60
2017-07-20T10:16:10.925Z,30.67
2017-07-20T10:18:38.372Z,31.10
2017-07-20T10:21:05.849Z,31.10
2017-07-20T10:23:33.299Z,31.24
2017-07-20T10:26:00.789Z,31.13
2017-07-20T10:28:28.233Z,31.29
2017-07-20T10:30:55.692Z,31.61
2017-07-20T10:33:23.164Z,31.26
2017-07-20T10:35:50.629Z,31.02
2017-07-20T10:38:18.112Z,31.32
2017-07-20T10:40:45.728Z,31.95
2017-07-20T10:43:13.176Z,31.50
2017-07-20T10:45:40.620Z,32.18
2017-07-20T10:48:08.104Z,32.12
2017-07-20T10:50:35.573Z,32.16
2017-07-20T10:53:03.057Z,32.16
2017-07-20T10:55:30.501Z,32.23
2017-07-20T10:57:57.947Z,32.33
2017-07-20T11:00:25.414Z,32.58
2017-07-20T11:02:52.866Z,32.99
2017-07-20T11:05:20.640Z,32.84
2017-07-20T11:07:48.089Z,31.40
2017-07-20T11:10:15.552Z,31.64
2017-07-20T11:12:43.038Z,31.65
2017-07-20T11:15:10.505Z,31.44
2017-07-20T11:17:37.949Z,31.34
2017-07-20T11:20:05.442Z,31.67
2017-07-20T11:22:32.885Z,32.37
2017-07-20T11:25:00.325Z,32.85
2017-07-20T11:27:27.792Z,32.69
2017-07-20T11:29:55.245Z,32.27
2017-07-20T11:32:22.727Z,32.59
2017-07-20T11:34:50.180Z,32.52
2017-07-20T11:37:17.636Z,32.89
2017-07-20T11:39:45.104Z,33.24
2017-07-20T11:42:12.549Z,34.85
2017-07-20T11:44:40.022Z,34.76
2017-07-20T11:47:07.469Z,35.24
2017-07-20T11:49:34.957Z,34.27
2017-07-20T11:52:02.409Z,33.53
2017-07-20T11:54:29.861Z,34.11
2017-07-20T11:56:57.350Z,33.94
2017-07-20T11:59:24.798Z,34.22
2017-07-20T12:01:52.241Z,34.90
2017-07-20T12:04:19.819Z,34.27
2017-07-20T12:06:47.272Z,34.53
2017-07-20T12:09:14.716Z,34.51
2017-07-20T12:11:42.205Z,34.71
2017-07-20T12:14:09.687Z,34.62
2017-07-20T12:16:37.137Z,34.43
2017-07-20T12:19:04.610Z,36.19
2017-07-20T12:21:32.060Z,35.10
2017-07-20T12:23:59.509Z,34.53
2017-07-20T12:26:26.977Z,34.53
2017-07-20T12:28:54.456Z,34.63
2017-07-20T12:31:21.932Z,34.07
2017-07-20T12:33:49.373Z,33.37
2017-07-20T12:36:16.817Z,33.46
2017-07-20T12:38:44.288Z,35.37
2017-07-20T12:41:11.743Z,34.50
2017-07-20T12:43:39.208Z,33.49
2017-07-20T12:46:06.658Z,34.54
2017-07-20T12:48:34.140Z,35.74
2017-07-20T12:51:01.603Z,37.49
2017-07-20T12:53:29.049Z,36.68
2017-07-20T12:55:56.946Z,37.94
2017-07-20T12:58:24.393Z,36.83
2017-07-20T13:00:51.838Z,37.14
2017-07-20T13:03:19.306Z,37.86
2017-07-20T13:05:47.088Z,37.90
2017-07-20T13:08:14.528Z,34.74
2017-07-20T13:10:41.974Z,33.76
2017-07-20T13:13:09.637Z,34.39
2017-07-20T13:15:37.092Z,34.29
2017-07-20T13:18:04.544Z,34.37
2017-07-20T13:20:32.013Z,34.18
2017-07-20T13:22:59.463Z,35.92
2017-07-20T13:25:26.946Z,36.77
2017-07-20T13:27:54.393Z,37.40
2017-07-20T13:30:21.850Z,37.35
2017-07-20T13:32:49.342Z,36.73
2017-07-20T13:35:16.800Z,35.55
2017-07-20T13:37:44.246Z,35.61
2017-07-20T13:40:11.717Z,33.61
2017-07-20T13:42:39.158Z,34.66
2017-07-20T13:45:06.651Z,35.49
2017-07-20T13:47:34.097Z,35.88
2017-07-20T13:50:01.542Z,35.99
2017-07-20T13:52:29.017Z,36.13
2017-07-20T13:54:56.489Z,36.19
2017-07-20T13:57:23.954Z,35.49
2017-07-20T13:59:51.449Z,34.98
2017-07-20T14:02:18.894Z,34.69
2017-07-20T14:04:46.344Z,35.19
2017-07-20T14:07:13.819Z,36.03
2017-07-20T14:09:41.312Z,34.38
2017-07-20T14:12:08.768Z,33.95
2017-07-20T14:14:36.225Z,34.05
2017-07-20T14:17:03.710Z,34.28
2017-07-20T14:19:31.152Z,34.01
2017-07-20T14:21:58.605Z,34.26
2017-07-20T14:24:26.072Z,34.01
2017-07-20T14:26:53.532Z,33.60
2017-07-20T14:29:21.004Z,35.02
2017-07-20T14:31:48.453Z,35.01
2017-07-20T14:34:15.917Z,34.61
2017-07-20T14:36:43.714Z,36.09
2017-07-20T14:39:11.165Z,36.60
2017-07-20T14:41:38.614Z,36.93
2017-07-20T14:44:06.081Z,36.42
2017-07-20T14:46:33.540Z,36.17
2017-07-20T14:49:00.985Z,36.76
2017-07-20T14:51:28.433Z,35.22
2017-07-20T14:53:55.899Z,35.85
2017-07-20T14:56:23.388Z,36.57
2017-07-20T14:58:50.834Z,37.46
2017-07-20T15:01:18.276Z,37.72
2017-07-20T15:03:45.765Z,37.19
2017-07-20T15:06:13.213Z,38.25
2017-07-20T15:08:40.665Z,38.34
2017-07-20T15:11:08.137Z,40.11
2017-07-20T15:13:35.659Z,39.45
2017-07-20T15:16:03.137Z,38.46
2017-07-20T15:18:30.609Z,38.82
2017-07-20T15:20:58.078Z,37.54
2017-07-20T15:23:25.559Z,37.97
2017-07-20T15:25:53.011Z,36.45
2017-07-20T15:28:20.478Z,36.21
2017-07-20T15:30:47.931Z,34.88
2017-07-20T15:33:15.398Z,34.43
2017-07-20T15:35:42.841Z,33.66
2017-07-20T15:38:10.315Z,33.26
2017-07-20T15:40:37.761Z,33.25
2017-07-20T15:43:05.269Z,33.29
2017-07-20T15:45:32.717Z,33.09
2017-07-20T15:48:00.168Z,33.05
2017-07-20T15:50:27.644Z,32.72
2017-07-20T15:52:55.117Z,31.58
2017-07-20T15:55:22.571Z,32.17
2017-07-20T15:57:50.039Z,31.98
2017-07-20T16:00:17.490Z,31.94
2017-07-20T16:02:44.969Z,31.81
2017-07-20T16:05:12.433Z,31.67
2017-07-20T16:07:39.921Z,31.53
2017-07-20T16:10:07.374Z,31.02
2017-07-20T16:12:34.828Z,31.04
2017-07-20T16:15:02.305Z,30.99
2017-07-20T16:17:29.753Z,30.95
2017-07-20T16:19:57.228Z,30.88
2017-07-20T16:22:24.805Z,30.79
2017-07-20T16:24:52.264Z,30.73
2017-07-20T16:27:19.709Z,30.64
2017-07-20T16:29:47.182Z,30.51
2017-07-20T16:32:14.657Z,28.27
2017-07-20T16:34:42.131Z,25.80
2017-07-20T16:37:09.616Z,25.09
2017-07-20T16:39:37.057Z,24.88
2017-07-20T16:42:04.504Z,24.14
2017-07-20T16:44:32.256Z,23.52
2017-07-20T16:46:59.693Z,22.59
2017-07-20T16:49:27.136Z,22.03
2017-07-20T16:51:54.619Z,21.21
2017-07-20T16:54:22.072Z,20.07
2017-07-20T16:56:49.517Z,19.47
2017-07-20T16:59:16.997Z,19.20
2017-07-20T17:01:44.451Z,19.15
2017-07-20T17:04:11.888Z,19.05
2017-07-20T17:06:39.356Z,18.93
2017-07-20T17:09:06.821Z,19.13
2017-07-20T17:11:34.294Z,19.22
2017-07-20T17:14:01.744Z,19.48
2017-07-20T17:16:29.189Z,19.46
2017-07-20T17:18:56.997Z,19.34
2017-07-20T17:21:24.457Z,19.08
2017-07-20T17:23:51.923Z,18.96
2017-07-20T17:26:19.393Z,18.91
2017-07-20T17:28:46.849Z,18.78
2017-07-20T17:31:14.357Z,18.56
2017-07-20T17:33:41.806Z,18.50
2017-07-20T17:36:09.253Z,18.22
2017-07-20T17:38:36.725Z,18.15
2017-07-20T17:41:04.166Z,18.08
2017-07-20T17:43:31.634Z,17.91
2017-07-20T17:45:59.086Z,17.92
2017-07-20T17:48:26.569Z,17.86
2017-07-20T17:50:54.013Z,17.74
2017-07-20T17:53:21.467Z,17.71
2017-07-20T17:55:48.929Z,17.68
2017-07-20T17:58:16.370Z,17.70
2017-07-20T18:00:43.856Z,17.71
2017-07-20T18:03:11.329Z,17.68
2017-07-20T18:05:38.765Z,17.70
2017-07-20T18:08:07.174Z,17.61
2017-07-20T18:10:34.904Z,17.68
2017-07-20T18:13:02.691Z,17.62
2017-07-20T18:15:30.141Z,17.55
2017-07-20T18:17:58.073Z,17.52
2017-07-20T18:20:25.645Z,17.57
2017-07-20T18:22:53.441Z,17.50
2017-07-20T18:25:20.937Z,17.56
2017-07-20T18:27:48.517Z,17.53
2017-07-20T18:30:16.156Z,17.51
2017-07-20T18:32:43.873Z,17.58
2017-07-20T18:35:11.349Z,17.54
2017-07-20T18:37:39.405Z,17.54
2017-07-20T18:40:07.226Z,17.52
2017-07-20T18:42:35.785Z,17.48
2017-07-20T18:45:03.269Z,17.54
2017-07-20T18:47:30.725Z,17.55
2017-07-20T18:49:59.041Z,17.57
2017-07-20T18:52:27.477Z,17.59
2017-07-20T18:54:54.916Z,17.58
2017-07-20T18:57:22.388Z,17.57
2017-07-20T18:59:50.420Z,17.57
2017-07-20T19:02:18.867Z,17.58
2017-07-20T19:04:47.325Z,17.54
2017-07-20T19:07:14.767Z,17.54
2017-07-20T19:09:42.270Z,17.55
2017-07-20T19:12:10.407Z,17.58
2017-07-20T19:14:38.711Z,17.58
2017-07-20T19:17:06.758Z,17.63
2017-07-20T19:19:34.213Z,17.66
2017-07-20T19:22:02.293Z,17.63
2017-07-20T19:24:30.822Z,17.60
2017-07-20T19:26:59.054Z,17.62
2017-07-20T19:29:26.854Z,17.65
2017-07-20T19:31:55.737Z,17.56
2017-07-20T19:34:23.181Z,17.73
2017-07-20T19:36:51.210Z,17.67
2017-07-20T19:39:19.712Z,17.78
2017-07-20T19:41:47.180Z,17.69
2017-07-20T19:44:14.653Z,17.76
2017-07-20T19:46:42.090Z,17.84
2017-07-20T19:49:10.450Z,17.73
2017-07-20T19:51:37.966Z,17.67
2017-07-20T19:54:05.408Z,17.64
2017-07-20T19:56:32.846Z,17.62
2017-07-20T19:59:00.962Z,17.68
2017-07-20T20:01:29.598Z,17.64
2017-07-20T20:03:57.045Z,17.61
2017-07-20T20:06:24.499Z,17.60
2017-07-20T20:08:51.973Z,17.54
2017-07-20T20:11:20.013Z,17.63
2017-07-20T20:13:48.367Z,17.57
2017-07-20T20:16:15.876Z,17.57
2017-07-20T20:18:43.332Z,17.59
2017-07-20T20:21:12.423Z,17.53
2017-07-20T20:23:39.940Z,17.62
2017-07-20T20:26:07.663Z,17.68
2017-07-20T20:28:35.131Z,17.58
2017-07-20T20:31:03.702Z,17.57
2017-07-20T20:33:32.064Z,17.54
2017-07-20T20:35:59.507Z,17.56
2017-07-20T20:38:26.997Z,17.59
2017-07-20T20:40:54.936Z,17.55
2017-07-20T20:43:23.484Z,17.50
2017-07-20T20:45:50.957Z,17.51
2017-07-20T20:48:18.449Z,17.58
2017-07-20T20:50:45.901Z,17.55
2017-07-20T20:53:13.890Z,17.59
2017-07-20T20:55:41.377Z,17.73
2017-07-20T20:58:09.691Z,17.67
2017-07-20T21:00:37.324Z,17.58
2017-07-20T21:03:05.040Z,17.57
2017-07-20T21:05:32.482Z,17.63
2017-07-20T21:08:00.053Z,17.72
2017-07-20T21:10:27.501Z,17.74
2017-07-20T21:12:54.990Z,17.75
2017-07-20T21:15:22.450Z,17.74
2017-07-20T21:17:49.902Z,17.77
2017-07-20T21:20:17.374Z,17.77
2017-07-20T21:22:44.821Z,17.74
2017-07-20T21:25:12.289Z,17.65
2017-07-20T21:27:39.772Z,17.61
2017-07-20T21:30:07.252Z,17.60
2017-07-20T21:32:34.794Z,17.59
2017-07-20T21:35:02.248Z,17.60
2017-07-20T21:37:29.722Z,17.56
2017-07-20T21:39:57.175Z,17.59
2017-07-20T21:42:24.653Z,17.63
2017-07-20T21:44:52.104Z,17.57
2017-07-20T21:47:19.574Z,17.58
2017-07-20T21:49:47.033Z,17.60
2017-07-20T21:52:14.503Z,17.57
2017-07-20T21:54:41.957Z,17.59
2017-07-20T21:57:09.425Z,17.64
2017-07-20T21:59:36.914Z,17.61
2017-07-20T22:02:04.363Z,17.59
2017-07-20T22:04:31.815Z,17.63
2017-07-20T22:06:59.283Z,17.66
2017-07-20T22:09:26.734Z,17.67
2017-07-20T22:11:54.204Z,17.69
2017-07-20T22:14:21.670Z,17.67
2017-07-20T22:16:49.167Z,17.69
2017-07-20T22:19:16.621Z,17.71
2017-07-20T22:21:44.068Z,17.66
2017-07-20T22:24:11.536Z,17.71
2017-07-20T22:26:38.993Z,17.67
2017-07-20T22:29:06.471Z,17.65
2017-07-20T22:31:33.921Z,17.63
2017-07-20T22:34:01.389Z,17.51
2017-07-20T22:36:28.855Z,17.55
2017-07-20T22:38:56.302Z,17.52
2017-07-20T22:41:24.053Z,17.60
2017-07-20T22:43:51.504Z,17.54
2017-07-20T22:46:18.948Z,17.58
2017-07-20T22:48:46.420Z,17.58
2017-07-20T22:51:13.871Z,17.61
2017-07-20T22:53:41.360Z,17.61
2017-07-20T22:56:08.881Z,17.57
2017-07-20T22:58:36.336Z,17.51
2017-07-20T23:01:03.829Z,17.52
2017-07-20T23:03:31.278Z,17.52
2017-07-20T23:05:58.729Z,17.46
2017-07-20T23:08:26.214Z,17.48
2017-07-20T23:10:53.685Z,17.47
2017-07-20T23:13:21.327Z,17.45
2017-07-20T23:15:49.053Z,17.47
2017-07-20T23:18:16.511Z,17.44
2017-07-20T23:20:43.957Z,17.44
2017-07-20T23:23:11.431Z,17.39
2017-07-20T23:25:39.250Z,17.42
2017-07-20T23:28:06.717Z,17.43
2017-07-20T23:30:34.167Z,17.37
2017-07-20T23:33:01.644Z,17.39
2017-07-20T23:35:29.086Z,17.42
2017-07-20T23:37:56.562Z,17.39
2017-07-20T23:40:24.059Z,17.40
2017-07-20T23:42:51.520Z,17.44
2017-07-20T23:45:18.979Z,17.42
2017-07-20T23:47:46.453Z,17.41
2017-07-20T23:50:13.928Z,17.34
2017-07-20T23:52:41.373Z,17.38
2017-07-20T23:55:09.077Z,17.31
2017-07-20T23:57:36.528Z,17.32
